首页
METAR-TAF:

METAR-TAF

机场 :

亞松森, 巴拉圭

西爾維奧·佩蒂羅西國際機場

纬度: 25-16S, 经度: 057-38W, 海拔: 101米

当前天气观测

该预报发布于45分钟前的12:30 UTC
风速5节,风向多变
温度 28°C
湿度 79%
气压 1012 hPa
能见度10公里或以上
少量云层高于3300英尺
多云层高于8000英尺

METAR: SGAS 171230Z VRB05KT 9999 FEW033 BKN080 28/24 Q1012

时间: 10:15 (13:15 UTC)

预报

该预报发布于3小时和15分钟前的10:00 UTC
预报有效从17日的 12点(UTC)到 18日的 12点(UTC)
风速8节,风向东转东北
能见度10公里或以上
散云层高于2700英尺
成为
从 17日的 15点(UTC)到 17日的 18点(UTC)
能见度10公里或以上
多云层高于2700英尺
少量云层高于4000英尺, 塔状积云.
成为
从 17日的 18点(UTC)到 17日的 21点(UTC)
风速8节,风向东转东北
能見度: 6000
多云层高于2000英尺
少量云层高于4000英尺, 塔状积云.
阵雨
成为
从 17日的 22点(UTC)到 18日的 01点(UTC)
风速5节,风向多变
能见度10公里或以上
多云层高于2700英尺

TAF: SGAS 171000Z 1712/1812 07008KT 9999 SCT027 TX33/1718Z TN22/1809Z BECMG 1715/1718 9999 BKN027 FEW040TCU BECMG 1718/1721 07008KT 6000 SHRA BKN020 FEW040TCU BECMG 1722/1801 VRB05KT 9999 BKN027

超过4000个机场的气象观测和天气预报(METAR&TAF报告)。

可查询的气象台以黄色和红色小点在地图上表示。

将鼠标移到小点上方,可查看气象台名称。

然后点击查看天气观测和预报。

如需切换地图:点击带黑十字的绿色按钮放大地图;点击带横线的绿色按钮缩小地图;或者点击绿色箭头查看邻近地区的地图。


METAR-TAF: